DAL821 KATL-KBOS
Flight info
| Callsign | DAL821 |
|---|---|
| Flight time | 2h 12m |
| Altitude | 35000 |
| Route | PLMMR3 BURGG Q22 RBV Q419 JFK ROBUC3 |
| Aircraft | A21N/M-SDE2E3FGHIRWXY/LB1 |
Departure
| Time | 2026-05-04 22:11 |
|---|---|
| Airport | Hartsfield Jackson Atlanta International Airport (KATL) |
Arrival
| Time | 2026-05-05 00:24 |
|---|---|
| Airport | Boston Logan International Airport (KBOS) |
| Time | Latitude | Longitude | Altitude | Speed | Heading |
|---|---|---|---|---|---|
| 2026-05-04 21:30 | 33.64340 | -84.43539 | 1025 ft | 0 kts | 270° |
| 2026-05-04 21:57 | 33.64340 | -84.43537 | 1027 ft | 1 kts | 270° |
| 2026-05-04 21:57 | 33.64340 | -84.43517 | 1025 ft | 3 kts | 271° |
| 2026-05-04 21:58 | 33.64339 | -84.43493 | 1033 ft | 3 kts | 267° |
| 2026-05-04 21:58 | 33.64341 | -84.43470 | 1027 ft | 3 kts | 238° |
| 2026-05-04 21:58 | 33.64345 | -84.43458 | 1027 ft | 1 kts | 182° |
| 2026-05-04 21:58 | 33.64347 | -84.43457 | 1027 ft | 0 kts | 180° |
| 2026-05-04 22:02 | 33.64329 | -84.43457 | 1024 ft | 1 kts | 181° |
| 2026-05-04 22:02 | 33.64294 | -84.43458 | 1021 ft | 8 kts | 180° |
| 2026-05-04 22:02 | 33.64215 | -84.43459 | 1022 ft | 14 kts | 180° |
| 2026-05-04 22:02 | 33.64114 | -84.43459 | 1019 ft | 13 kts | 180° |
| 2026-05-04 22:03 | 33.64028 | -84.43459 | 1016 ft | 13 kts | 180° |
| 2026-05-04 22:03 | 33.63956 | -84.43459 | 1015 ft | 9 kts | 180° |
| 2026-05-04 22:03 | 33.63885 | -84.43459 | 1014 ft | 11 kts | 180° |
| 2026-05-04 22:03 | 33.63819 | -84.43460 | 1013 ft | 9 kts | 180° |
| 2026-05-04 22:04 | 33.63760 | -84.43460 | 1012 ft | 10 kts | 180° |
| 2026-05-04 22:04 | 33.63699 | -84.43454 | 1011 ft | 0 kts | 168° |
| 2026-05-04 22:04 | 33.63684 | -84.43442 | 1010 ft | 6 kts | 143° |
| 2026-05-04 22:04 | 33.63663 | -84.43369 | 1009 ft | 12 kts | 98° |
| 2026-05-04 22:05 | 33.63663 | -84.43248 | 1009 ft | 16 kts | 88° |
| 2026-05-04 22:05 | 33.63663 | -84.43103 | 1009 ft | 19 kts | 91° |
| 2026-05-04 22:05 | 33.63664 | -84.42926 | 1006 ft | 23 kts | 89° |
| 2026-05-04 22:05 | 33.63661 | -84.42754 | 1008 ft | 19 kts | 95° |
| 2026-05-04 22:06 | 33.63655 | -84.42614 | 1009 ft | 15 kts | 91° |
| 2026-05-04 22:06 | 33.63655 | -84.42477 | 1007 ft | 18 kts | 88° |
| 2026-05-04 22:06 | 33.63656 | -84.42322 | 1005 ft | 16 kts | 90° |
| 2026-05-04 22:06 | 33.63653 | -84.42213 | 1006 ft | 14 kts | 99° |
| 2026-05-04 22:07 | 33.63602 | -84.42094 | 1003 ft | 19 kts | 120° |
| 2026-05-04 22:07 | 33.63582 | -84.41919 | 1000 ft | 24 kts | 90° |
| 2026-05-04 22:07 | 33.63581 | -84.41707 | 997 ft | 24 kts | 90° |
| 2026-05-04 22:07 | 33.63582 | -84.41501 | 990 ft | 27 kts | 89° |
| 2026-05-04 22:08 | 33.63582 | -84.41371 | 992 ft | 13 kts | 90° |
| 2026-05-04 22:08 | 33.63581 | -84.41251 | 991 ft | 16 kts | 90° |
| 2026-05-04 22:08 | 33.63580 | -84.41138 | 993 ft | 11 kts | 90° |
| 2026-05-04 22:08 | 33.63582 | -84.41027 | 992 ft | 14 kts | 89° |
| 2026-05-04 22:09 | 33.63569 | -84.40928 | 992 ft | 13 kts | 120° |
| 2026-05-04 22:09 | 33.63508 | -84.40915 | 992 ft | 8 kts | 195° |
| 2026-05-04 22:09 | 33.63474 | -84.40967 | 993 ft | 9 kts | 256° |
| 2026-05-04 22:09 | 33.63471 | -84.41045 | 988 ft | 0 kts | 269° |
| 2026-05-04 22:10 | 33.63471 | -84.41060 | 988 ft | 4 kts | 269° |
| 2026-05-04 22:10 | 33.63464 | -84.41349 | 992 ft | 74 kts | 268° |
| 2026-05-04 22:11 | 33.63467 | -84.42258 | 1003 ft | 140 kts | 271° |
| 2026-05-04 22:11 | 33.63461 | -84.43592 | 1354 ft | 163 kts | 268° |
| 2026-05-04 22:11 | 33.63416 | -84.44955 | 2218 ft | 164 kts | 260° |
| 2026-05-04 22:11 | 33.63155 | -84.46272 | 3043 ft | 161 kts | 248° |
| 2026-05-04 22:12 | 33.62718 | -84.47501 | 3878 ft | 159 kts | 246° |
| 2026-05-04 22:12 | 33.62298 | -84.48734 | 4599 ft | 166 kts | 248° |
| 2026-05-04 22:12 | 33.61909 | -84.50122 | 5168 ft | 184 kts | 249° |
| 2026-05-04 22:12 | 33.61446 | -84.51635 | 5676 ft | 203 kts | 246° |
| 2026-05-04 22:13 | 33.60871 | -84.53268 | 6191 ft | 223 kts | 244° |
| 2026-05-04 22:13 | 33.60430 | -84.54420 | 6487 ft | 237 kts | 243° |
| 2026-05-04 22:13 | 33.59651 | -84.56280 | 6929 ft | 261 kts | 234° |
| 2026-05-04 22:13 | 33.58312 | -84.57793 | 7652 ft | 270 kts | 208° |
| 2026-05-04 22:14 | 33.56518 | -84.58451 | 8615 ft | 275 kts | 184° |
| 2026-05-04 22:14 | 33.54592 | -84.58460 | 9575 ft | 279 kts | 180° |
| 2026-05-04 22:14 | 33.52637 | -84.58438 | 10484 ft | 284 kts | 181° |
| 2026-05-04 22:14 | 33.50640 | -84.58422 | 11313 ft | 289 kts | 180° |
| 2026-05-04 22:15 | 33.48645 | -84.57989 | 12130 ft | 298 kts | 158° |
| 2026-05-04 22:15 | 33.46916 | -84.56564 | 12905 ft | 309 kts | 133° |
| 2026-05-04 22:15 | 33.45806 | -84.54343 | 13678 ft | 318 kts | 109° |
| 2026-05-04 22:15 | 33.45454 | -84.51704 | 14026 ft | 329 kts | 92° |
| 2026-05-04 22:16 | 33.45466 | -84.48838 | 14066 ft | 358 kts | 88° |
| 2026-05-04 22:16 | 33.45556 | -84.45782 | 14479 ft | 373 kts | 88° |
| 2026-05-04 22:16 | 33.45617 | -84.42660 | 15167 ft | 378 kts | 89° |
| 2026-05-04 22:16 | 33.45640 | -84.39490 | 15846 ft | 383 kts | 90° |
| 2026-05-04 22:17 | 33.45723 | -84.36282 | 16493 ft | 389 kts | 82° |
| 2026-05-04 22:17 | 33.46507 | -84.33178 | 17142 ft | 394 kts | 62° |
| 2026-05-04 22:17 | 33.48072 | -84.30486 | 17763 ft | 397 kts | 45° |
| 2026-05-04 22:17 | 33.50005 | -84.28107 | 18398 ft | 401 kts | 43° |
| 2026-05-04 22:18 | 33.51998 | -84.25746 | 18978 ft | 404 kts | 42° |
| 2026-05-04 22:18 | 33.54001 | -84.23365 | 19599 ft | 408 kts | 43° |
| 2026-05-04 22:18 | 33.56013 | -84.20945 | 20172 ft | 412 kts | 43° |
| 2026-05-04 22:18 | 33.58030 | -84.18493 | 20754 ft | 415 kts | 43° |
| 2026-05-04 22:19 | 33.60062 | -84.16009 | 21315 ft | 419 kts | 43° |
| 2026-05-04 22:19 | 33.62111 | -84.13500 | 21874 ft | 423 kts | 43° |
| 2026-05-04 22:19 | 33.64175 | -84.10971 | 22439 ft | 426 kts | 43° |
| 2026-05-04 22:19 | 33.66259 | -84.08417 | 22994 ft | 430 kts | 43° |
| 2026-05-04 22:20 | 33.68361 | -84.05839 | 23514 ft | 434 kts | 43° |
| 2026-05-04 22:20 | 33.70478 | -84.03244 | 24001 ft | 437 kts | 43° |
| 2026-05-04 22:20 | 33.72613 | -84.00624 | 24464 ft | 440 kts | 43° |
| 2026-05-04 22:20 | 33.74757 | -83.97993 | 24943 ft | 442 kts | 42° |
| 2026-05-04 22:21 | 33.76916 | -83.95341 | 25392 ft | 445 kts | 42° |
| 2026-05-04 22:21 | 33.79087 | -83.92674 | 25830 ft | 448 kts | 42° |
| 2026-05-04 22:21 | 33.81271 | -83.89989 | 26269 ft | 450 kts | 42° |
| 2026-05-04 22:21 | 33.83468 | -83.87284 | 26696 ft | 453 kts | 42° |
| 2026-05-04 22:22 | 33.85678 | -83.84563 | 27095 ft | 456 kts | 42° |
| 2026-05-04 22:22 | 33.87898 | -83.81826 | 27500 ft | 459 kts | 42° |
| 2026-05-04 22:22 | 33.90132 | -83.79070 | 27894 ft | 461 kts | 42° |
| 2026-05-04 22:22 | 33.92376 | -83.76299 | 28280 ft | 463 kts | 42° |
| 2026-05-04 22:23 | 33.94624 | -83.73501 | 28615 ft | 467 kts | 44° |
| 2026-05-04 22:23 | 33.96686 | -83.70453 | 28962 ft | 472 kts | 51° |
| 2026-05-04 22:23 | 33.98634 | -83.67257 | 29295 ft | 474 kts | 51° |
| 2026-05-04 22:23 | 34.00599 | -83.64052 | 29623 ft | 477 kts | 51° |
| 2026-05-04 22:24 | 34.02577 | -83.60832 | 29941 ft | 479 kts | 50° |
| 2026-05-04 22:24 | 34.04565 | -83.57595 | 30236 ft | 482 kts | 51° |
| 2026-05-04 22:24 | 34.06562 | -83.54342 | 30509 ft | 484 kts | 51° |
| 2026-05-04 22:24 | 34.08568 | -83.51067 | 30776 ft | 487 kts | 51° |
| 2026-05-04 22:25 | 34.10583 | -83.47775 | 31052 ft | 489 kts | 51° |
| 2026-05-04 22:25 | 34.12603 | -83.44469 | 31385 ft | 490 kts | 51° |
| 2026-05-04 22:25 | 34.14624 | -83.41158 | 31748 ft | 489 kts | 51° |
| 2026-05-04 22:25 | 34.16640 | -83.37853 | 32113 ft | 489 kts | 51° |
| 2026-05-04 22:26 | 34.18656 | -83.34545 | 32474 ft | 489 kts | 51° |
| 2026-05-04 22:26 | 34.20667 | -83.31243 | 32835 ft | 488 kts | 51° |
| 2026-05-04 22:26 | 34.22677 | -83.27941 | 33192 ft | 487 kts | 51° |
| 2026-05-04 22:26 | 34.24659 | -83.24681 | 33519 ft | 487 kts | 51° |
| 2026-05-04 22:27 | 34.26685 | -83.21345 | 33869 ft | 486 kts | 51° |
| 2026-05-04 22:27 | 34.28659 | -83.18093 | 34160 ft | 486 kts | 51° |
| 2026-05-04 22:27 | 34.30661 | -83.14789 | 34406 ft | 487 kts | 51° |
| 2026-05-04 22:27 | 34.32668 | -83.11490 | 34604 ft | 488 kts | 50° |
| 2026-05-04 22:28 | 34.34687 | -83.08194 | 34834 ft | 488 kts | 50° |
| 2026-05-04 22:28 | 34.36712 | -83.04893 | 35014 ft | 489 kts | 50° |
| 2026-05-04 22:28 | 34.38737 | -83.01586 | 35021 ft | 488 kts | 50° |
| 2026-05-04 22:29 | 34.42777 | -82.94973 | 35023 ft | 489 kts | 50° |
| 2026-05-04 22:29 | 34.46819 | -82.88339 | 35027 ft | 490 kts | 50° |
| 2026-05-04 22:30 | 34.50867 | -82.81682 | 35029 ft | 491 kts | 50° |
| 2026-05-04 22:30 | 34.54916 | -82.75011 | 35029 ft | 491 kts | 50° |
| 2026-05-04 22:31 | 34.58968 | -82.68322 | 35027 ft | 492 kts | 50° |
| 2026-05-04 22:31 | 34.63018 | -82.61624 | 35025 ft | 493 kts | 50° |
| 2026-05-04 22:32 | 34.67072 | -82.54906 | 35033 ft | 493 kts | 50° |
| 2026-05-04 22:32 | 34.71068 | -82.48122 | 35039 ft | 494 kts | 51° |
| 2026-05-04 22:33 | 34.75053 | -82.41304 | 35043 ft | 495 kts | 51° |
| 2026-05-04 22:33 | 34.79043 | -82.34484 | 35043 ft | 495 kts | 51° |
| 2026-05-04 22:34 | 34.83036 | -82.27652 | 35042 ft | 495 kts | 51° |
| 2026-05-04 22:34 | 34.87030 | -82.20808 | 35038 ft | 496 kts | 51° |
| 2026-05-04 22:35 | 34.91018 | -82.13960 | 35042 ft | 496 kts | 51° |
| 2026-05-04 22:35 | 34.95007 | -82.07097 | 35036 ft | 496 kts | 51° |
| 2026-05-04 22:36 | 34.98992 | -82.00226 | 35031 ft | 496 kts | 51° |
| 2026-05-04 22:36 | 35.02974 | -81.93350 | 35031 ft | 496 kts | 51° |
| 2026-05-04 22:37 | 35.07066 | -81.86585 | 35025 ft | 495 kts | 49° |
| 2026-05-04 22:37 | 35.11254 | -81.79927 | 35019 ft | 495 kts | 49° |
| 2026-05-04 22:38 | 35.15422 | -81.73233 | 35018 ft | 495 kts | 49° |
| 2026-05-04 22:38 | 35.19566 | -81.66529 | 35024 ft | 494 kts | 49° |
| 2026-05-04 22:39 | 35.23705 | -81.59815 | 35019 ft | 494 kts | 49° |
| 2026-05-04 22:39 | 35.27838 | -81.53099 | 35018 ft | 494 kts | 49° |
| 2026-05-04 22:40 | 35.31965 | -81.46381 | 35012 ft | 494 kts | 49° |
| 2026-05-04 22:40 | 35.36092 | -81.39650 | 35006 ft | 494 kts | 49° |
| 2026-05-04 22:41 | 35.40213 | -81.32914 | 35006 ft | 494 kts | 49° |
| 2026-05-04 22:41 | 35.44332 | -81.26170 | 35009 ft | 494 kts | 49° |
| 2026-05-04 22:42 | 35.48450 | -81.19414 | 35010 ft | 495 kts | 49° |
| 2026-05-04 22:42 | 35.52567 | -81.12647 | 35013 ft | 495 kts | 49° |
| 2026-05-04 22:43 | 35.56687 | -81.05861 | 35012 ft | 496 kts | 49° |
| 2026-05-04 22:43 | 35.60805 | -80.99066 | 35008 ft | 496 kts | 49° |
| 2026-05-04 22:44 | 35.64926 | -80.92251 | 35018 ft | 497 kts | 49° |
| 2026-05-04 22:44 | 35.69051 | -80.85418 | 35020 ft | 498 kts | 49° |
| 2026-05-04 22:45 | 35.73175 | -80.78571 | 35017 ft | 498 kts | 49° |
| 2026-05-04 22:45 | 35.79363 | -80.68271 | 34999 ft | 499 kts | 49° |
| 2026-05-04 22:46 | 35.83488 | -80.61389 | 34998 ft | 499 kts | 49° |
| 2026-05-04 22:46 | 35.87612 | -80.54495 | 34995 ft | 500 kts | 49° |
| 2026-05-04 22:47 | 35.91739 | -80.47583 | 35002 ft | 500 kts | 49° |
| 2026-05-04 22:47 | 35.95837 | -80.40704 | 35004 ft | 501 kts | 49° |
| 2026-05-04 22:48 | 35.99995 | -80.33721 | 35001 ft | 502 kts | 49° |
| 2026-05-04 22:48 | 36.04102 | -80.26827 | 34993 ft | 502 kts | 49° |
| 2026-05-04 22:49 | 36.08238 | -80.19868 | 34992 ft | 503 kts | 49° |
| 2026-05-04 22:49 | 36.12375 | -80.12893 | 34996 ft | 503 kts | 49° |
| 2026-05-04 22:50 | 36.16508 | -80.05910 | 34996 ft | 503 kts | 49° |
| 2026-05-04 22:50 | 36.20646 | -79.98903 | 34995 ft | 504 kts | 49° |
| 2026-05-04 22:51 | 36.24781 | -79.91890 | 34994 ft | 504 kts | 49° |
| 2026-05-04 22:51 | 36.28916 | -79.84863 | 34984 ft | 505 kts | 49° |
| 2026-05-04 22:52 | 36.33049 | -79.77825 | 34987 ft | 505 kts | 49° |
| 2026-05-04 22:52 | 36.37182 | -79.70772 | 34981 ft | 506 kts | 49° |
| 2026-05-04 22:53 | 36.41315 | -79.63705 | 34981 ft | 506 kts | 49° |
| 2026-05-04 22:53 | 36.45446 | -79.56625 | 34965 ft | 506 kts | 49° |
| 2026-05-04 22:54 | 36.49577 | -79.49531 | 34975 ft | 507 kts | 49° |
| 2026-05-04 22:54 | 36.53708 | -79.42420 | 34985 ft | 508 kts | 49° |
| 2026-05-04 22:55 | 36.57841 | -79.35293 | 34985 ft | 508 kts | 49° |
| 2026-05-04 22:55 | 36.61975 | -79.28151 | 34982 ft | 509 kts | 49° |
| 2026-05-04 22:56 | 36.66111 | -79.20988 | 34981 ft | 510 kts | 49° |
| 2026-05-04 22:56 | 36.69546 | -79.15027 | 34987 ft | 510 kts | 49° |
| 2026-05-04 22:57 | 36.73680 | -79.07840 | 34974 ft | 510 kts | 49° |
| 2026-05-04 22:57 | 36.77813 | -79.00640 | 34964 ft | 511 kts | 49° |
| 2026-05-04 22:58 | 36.81947 | -78.93424 | 34967 ft | 511 kts | 49° |
| 2026-05-04 22:58 | 36.86070 | -78.86181 | 34970 ft | 512 kts | 49° |
| 2026-05-04 22:59 | 36.90184 | -78.78905 | 34973 ft | 513 kts | 49° |
| 2026-05-04 22:59 | 36.94296 | -78.71623 | 34976 ft | 513 kts | 49° |
| 2026-05-04 23:00 | 36.98410 | -78.64325 | 34982 ft | 513 kts | 49° |
| 2026-05-04 23:00 | 37.02519 | -78.57022 | 34975 ft | 514 kts | 49° |
| 2026-05-04 23:01 | 37.06633 | -78.49694 | 34972 ft | 514 kts | 49° |
| 2026-05-04 23:01 | 37.10716 | -78.42406 | 34960 ft | 515 kts | 49° |
| 2026-05-04 23:02 | 37.14827 | -78.35051 | 34956 ft | 515 kts | 49° |
| 2026-05-04 23:02 | 37.18927 | -78.27672 | 34954 ft | 517 kts | 50° |
| 2026-05-04 23:03 | 37.22642 | -78.19887 | 34962 ft | 522 kts | 56° |
| 2026-05-04 23:03 | 37.26169 | -78.11918 | 34959 ft | 523 kts | 56° |
| 2026-05-04 23:04 | 37.29704 | -78.03943 | 34958 ft | 523 kts | 56° |
| 2026-05-04 23:04 | 37.33246 | -77.95936 | 34965 ft | 526 kts | 56° |
| 2026-05-04 23:05 | 37.36793 | -77.87889 | 34968 ft | 525 kts | 56° |
| 2026-05-04 23:05 | 37.40330 | -77.79848 | 34971 ft | 525 kts | 56° |
| 2026-05-04 23:06 | 37.43860 | -77.71801 | 34975 ft | 526 kts | 56° |
| 2026-05-04 23:06 | 37.47387 | -77.63741 | 34971 ft | 525 kts | 56° |
| 2026-05-04 23:07 | 37.50901 | -77.55691 | 34963 ft | 524 kts | 56° |
| 2026-05-04 23:07 | 37.54402 | -77.47651 | 34953 ft | 523 kts | 56° |
| 2026-05-04 23:08 | 37.57898 | -77.39603 | 34949 ft | 523 kts | 56° |
| 2026-05-04 23:08 | 37.61386 | -77.31555 | 34947 ft | 522 kts | 56° |
| 2026-05-04 23:09 | 37.64863 | -77.23512 | 34944 ft | 522 kts | 56° |
| 2026-05-04 23:09 | 37.68615 | -77.15734 | 34946 ft | 511 kts | 42° |
| 2026-05-04 23:10 | 37.71075 | -77.12584 | 34936 ft | 498 kts | 31° |
| 2026-05-04 23:10 | 37.73855 | -77.10098 | 34934 ft | 484 kts | 19° |
| 2026-05-04 23:10 | 37.79732 | -77.06057 | 34940 ft | 481 kts | 18° |
| 2026-05-04 23:11 | 37.85616 | -77.01993 | 34946 ft | 482 kts | 19° |
| 2026-05-04 23:11 | 37.91497 | -76.97913 | 34954 ft | 482 kts | 19° |
| 2026-05-04 23:12 | 37.97382 | -76.93819 | 34956 ft | 483 kts | 19° |
| 2026-05-04 23:12 | 38.03267 | -76.89718 | 34960 ft | 483 kts | 19° |
| 2026-05-04 23:13 | 38.09153 | -76.85610 | 34961 ft | 483 kts | 19° |
| 2026-05-04 23:13 | 38.15036 | -76.81497 | 34954 ft | 482 kts | 19° |
| 2026-05-04 23:14 | 38.20864 | -76.77392 | 34945 ft | 483 kts | 21° |
| 2026-05-04 23:14 | 38.26505 | -76.72611 | 34945 ft | 491 kts | 29° |
| 2026-05-04 23:15 | 38.31797 | -76.67041 | 34951 ft | 495 kts | 32° |
| 2026-05-04 23:15 | 38.37031 | -76.61363 | 34952 ft | 493 kts | 32° |
| 2026-05-04 23:16 | 38.42252 | -76.55704 | 34947 ft | 492 kts | 32° |
| 2026-05-04 23:16 | 38.47480 | -76.50082 | 34947 ft | 491 kts | 32° |
| 2026-05-04 23:17 | 38.52704 | -76.44482 | 34929 ft | 490 kts | 32° |
| 2026-05-04 23:17 | 38.57914 | -76.38880 | 34934 ft | 489 kts | 32° |
| 2026-05-04 23:18 | 38.63107 | -76.33279 | 34940 ft | 488 kts | 32° |
| 2026-05-04 23:18 | 38.68291 | -76.27678 | 34929 ft | 487 kts | 33° |
| 2026-05-04 23:19 | 38.73469 | -76.22072 | 34918 ft | 487 kts | 33° |
| 2026-05-04 23:19 | 38.78638 | -76.16465 | 34918 ft | 487 kts | 33° |
| 2026-05-04 23:20 | 38.83799 | -76.10856 | 34923 ft | 487 kts | 33° |
| 2026-05-04 23:20 | 38.88959 | -76.05236 | 34926 ft | 486 kts | 33° |
| 2026-05-04 23:21 | 38.94112 | -75.99613 | 34928 ft | 486 kts | 33° |
| 2026-05-04 23:21 | 38.99214 | -75.93883 | 34929 ft | 488 kts | 36° |
| 2026-05-04 23:22 | 39.04170 | -75.87898 | 34922 ft | 489 kts | 37° |
| 2026-05-04 23:22 | 39.09130 | -75.81931 | 34916 ft | 488 kts | 36° |
| 2026-05-04 23:23 | 39.14100 | -75.75984 | 34913 ft | 487 kts | 36° |
| 2026-05-04 23:23 | 39.19062 | -75.70045 | 34914 ft | 487 kts | 36° |
| 2026-05-04 23:24 | 39.24013 | -75.64108 | 34914 ft | 486 kts | 37° |
| 2026-05-04 23:24 | 39.28958 | -75.58165 | 34916 ft | 485 kts | 37° |
| 2026-05-04 23:25 | 39.33859 | -75.52263 | 34915 ft | 484 kts | 37° |
| 2026-05-04 23:25 | 39.38807 | -75.46291 | 34916 ft | 483 kts | 37° |
| 2026-05-04 23:26 | 39.43711 | -75.40360 | 34921 ft | 482 kts | 37° |
| 2026-05-04 23:26 | 39.48607 | -75.34428 | 34928 ft | 481 kts | 37° |
| 2026-05-04 23:27 | 39.53488 | -75.28501 | 34923 ft | 481 kts | 37° |
| 2026-05-04 23:27 | 39.58358 | -75.22576 | 34922 ft | 480 kts | 37° |
| 2026-05-04 23:28 | 39.63219 | -75.16649 | 34907 ft | 479 kts | 37° |
| 2026-05-04 23:28 | 39.68066 | -75.10729 | 34908 ft | 478 kts | 37° |
| 2026-05-04 23:29 | 39.73034 | -75.05087 | 34753 ft | 463 kts | 36° |
| 2026-05-04 23:29 | 39.75413 | -75.02477 | 34913 ft | 447 kts | 36° |
| 2026-05-04 23:29 | 39.77771 | -74.99863 | 34918 ft | 446 kts | 37° |
| 2026-05-04 23:30 | 39.82535 | -74.94516 | 34918 ft | 450 kts | 37° |
| 2026-05-04 23:30 | 39.87242 | -74.89179 | 34918 ft | 448 kts | 37° |
| 2026-05-04 23:31 | 39.92061 | -74.84153 | 34916 ft | 445 kts | 32° |
| 2026-05-04 23:31 | 39.97120 | -74.79506 | 34918 ft | 445 kts | 31° |
| 2026-05-04 23:32 | 40.02089 | -74.74689 | 34916 ft | 447 kts | 36° |
| 2026-05-04 23:32 | 40.06641 | -74.69130 | 34917 ft | 450 kts | 43° |
| 2026-05-04 23:33 | 40.10850 | -74.63072 | 34919 ft | 450 kts | 44° |
| 2026-05-04 23:33 | 40.15053 | -74.57002 | 34917 ft | 450 kts | 44° |
| 2026-05-04 23:34 | 40.19310 | -74.51013 | 34918 ft | 448 kts | 40° |
| 2026-05-04 23:34 | 40.23915 | -74.45562 | 34916 ft | 445 kts | 35° |
| 2026-05-04 23:35 | 40.28701 | -74.40471 | 34808 ft | 440 kts | 35° |
| 2026-05-04 23:35 | 40.31068 | -74.37945 | 34407 ft | 437 kts | 35° |
| 2026-05-04 23:35 | 40.33414 | -74.35436 | 33858 ft | 434 kts | 35° |
| 2026-05-04 23:36 | 40.35744 | -74.32941 | 33033 ft | 433 kts | 35° |
| 2026-05-04 23:36 | 40.38088 | -74.30431 | 32032 ft | 437 kts | 35° |
| 2026-05-04 23:36 | 40.40453 | -74.27897 | 31028 ft | 441 kts | 35° |
| 2026-05-04 23:36 | 40.42843 | -74.25331 | 30046 ft | 445 kts | 35° |
| 2026-05-04 23:37 | 40.45236 | -74.22758 | 29191 ft | 443 kts | 35° |
| 2026-05-04 23:37 | 40.47604 | -74.20206 | 28470 ft | 438 kts | 35° |
| 2026-05-04 23:37 | 40.49942 | -74.17684 | 27744 ft | 434 kts | 35° |
| 2026-05-04 23:37 | 40.51486 | -74.16019 | 27275 ft | 431 kts | 35° |
| 2026-05-04 23:38 | 40.52863 | -74.14380 | 27017 ft | 429 kts | 42° |
| 2026-05-04 23:38 | 40.54759 | -74.11252 | 26895 ft | 438 kts | 54° |
| 2026-05-04 23:38 | 40.56144 | -74.07706 | 26891 ft | 446 kts | 66° |
| 2026-05-04 23:38 | 40.57098 | -74.03815 | 26899 ft | 447 kts | 70° |
| 2026-05-04 23:39 | 40.58006 | -73.99903 | 26897 ft | 447 kts | 70° |
| 2026-05-04 23:39 | 40.58915 | -73.95992 | 26898 ft | 447 kts | 70° |
| 2026-05-04 23:39 | 40.59823 | -73.92084 | 26908 ft | 447 kts | 70° |
| 2026-05-04 23:39 | 40.60732 | -73.88173 | 26906 ft | 447 kts | 70° |
| 2026-05-04 23:40 | 40.61639 | -73.84261 | 26905 ft | 447 kts | 70° |
| 2026-05-04 23:40 | 40.62546 | -73.80345 | 26906 ft | 447 kts | 70° |
| 2026-05-04 23:40 | 40.63452 | -73.76430 | 26905 ft | 447 kts | 70° |
| 2026-05-04 23:40 | 40.64375 | -73.72518 | 26905 ft | 447 kts | 69° |
| 2026-05-04 23:41 | 40.65302 | -73.68609 | 26907 ft | 447 kts | 69° |
| 2026-05-04 23:41 | 40.66229 | -73.64705 | 26907 ft | 447 kts | 69° |
| 2026-05-04 23:41 | 40.67442 | -73.60964 | 26910 ft | 441 kts | 55° |
| 2026-05-04 23:41 | 40.69259 | -73.57760 | 26919 ft | 434 kts | 41° |
| 2026-05-04 23:42 | 40.71570 | -73.55277 | 26919 ft | 426 kts | 27° |
| 2026-05-04 23:42 | 40.74224 | -73.53657 | 26917 ft | 418 kts | 12° |
| 2026-05-04 23:42 | 40.77054 | -73.52987 | 26921 ft | 411 kts | 358° |
| 2026-05-04 23:42 | 40.79874 | -73.53274 | 26921 ft | 405 kts | 347° |
| 2026-05-04 23:43 | 40.82651 | -73.53934 | 26916 ft | 405 kts | 346° |
| 2026-05-04 23:43 | 40.84485 | -73.54380 | 26915 ft | 405 kts | 346° |
| 2026-05-04 23:43 | 40.87253 | -73.55054 | 26908 ft | 405 kts | 346° |
| 2026-05-04 23:43 | 40.90021 | -73.55727 | 26913 ft | 405 kts | 346° |
| 2026-05-04 23:44 | 40.92817 | -73.56210 | 26890 ft | 408 kts | 355° |
| 2026-05-04 23:44 | 40.95658 | -73.55816 | 26882 ft | 416 kts | 9° |
| 2026-05-04 23:44 | 40.98388 | -73.54481 | 26880 ft | 424 kts | 24° |
| 2026-05-04 23:44 | 41.00839 | -73.52260 | 26885 ft | 432 kts | 38° |
| 2026-05-04 23:45 | 41.02850 | -73.49267 | 26884 ft | 440 kts | 52° |
| 2026-05-04 23:45 | 41.04300 | -73.45677 | 26887 ft | 446 kts | 64° |
| 2026-05-04 23:45 | 41.05401 | -73.41819 | 26889 ft | 448 kts | 66° |
| 2026-05-04 23:45 | 41.06490 | -73.37959 | 26891 ft | 447 kts | 65° |
| 2026-05-04 23:46 | 41.07664 | -73.34147 | 26893 ft | 446 kts | 63° |
| 2026-05-04 23:46 | 41.08889 | -73.30372 | 26892 ft | 447 kts | 66° |
| 2026-05-04 23:46 | 41.09776 | -73.26404 | 26887 ft | 450 kts | 68° |
| 2026-05-04 23:46 | 41.10900 | -73.22564 | 26874 ft | 444 kts | 63° |
| 2026-05-04 23:47 | 41.12162 | -73.18846 | 26547 ft | 440 kts | 61° |
| 2026-05-04 23:47 | 41.13438 | -73.15161 | 25976 ft | 438 kts | 62° |
| 2026-05-04 23:47 | 41.14686 | -73.11482 | 25331 ft | 436 kts | 62° |
| 2026-05-04 23:47 | 41.15900 | -73.07816 | 24675 ft | 433 kts | 63° |
| 2026-05-04 23:48 | 41.17090 | -73.04159 | 24031 ft | 430 kts | 63° |
| 2026-05-04 23:48 | 41.18265 | -73.00517 | 23388 ft | 427 kts | 63° |
| 2026-05-04 23:48 | 41.19422 | -72.96915 | 22982 ft | 421 kts | 63° |
| 2026-05-04 23:48 | 41.20575 | -72.93319 | 22896 ft | 426 kts | 63° |
| 2026-05-04 23:49 | 41.21825 | -72.89761 | 22899 ft | 425 kts | 59° |
| 2026-05-04 23:49 | 41.23168 | -72.86274 | 22899 ft | 424 kts | 59° |
| 2026-05-04 23:49 | 41.24510 | -72.82780 | 22897 ft | 424 kts | 59° |
| 2026-05-04 23:49 | 41.25850 | -72.79286 | 22896 ft | 424 kts | 59° |
| 2026-05-04 23:50 | 41.27186 | -72.75790 | 22839 ft | 423 kts | 59° |
| 2026-05-04 23:50 | 41.28518 | -72.72304 | 22352 ft | 423 kts | 59° |
| 2026-05-04 23:50 | 41.29840 | -72.68838 | 22084 ft | 417 kts | 59° |
| 2026-05-04 23:50 | 41.31152 | -72.65391 | 22052 ft | 420 kts | 59° |
| 2026-05-04 23:51 | 41.32474 | -72.61920 | 22002 ft | 420 kts | 59° |
| 2026-05-04 23:51 | 41.33792 | -72.58451 | 21927 ft | 420 kts | 59° |
| 2026-05-04 23:51 | 41.35105 | -72.54989 | 21875 ft | 419 kts | 59° |
| 2026-05-04 23:51 | 41.36420 | -72.51522 | 21783 ft | 419 kts | 59° |
| 2026-05-04 23:52 | 41.37730 | -72.48062 | 21682 ft | 419 kts | 59° |
| 2026-05-04 23:52 | 41.39037 | -72.44606 | 21580 ft | 418 kts | 59° |
| 2026-05-04 23:52 | 41.40343 | -72.41149 | 21487 ft | 418 kts | 60° |
| 2026-05-04 23:52 | 41.41645 | -72.37697 | 21391 ft | 417 kts | 60° |
| 2026-05-04 23:53 | 41.42944 | -72.34248 | 21294 ft | 416 kts | 60° |
| 2026-05-04 23:53 | 41.44243 | -72.30796 | 21189 ft | 416 kts | 60° |
| 2026-05-04 23:53 | 41.45539 | -72.27349 | 21091 ft | 416 kts | 60° |
| 2026-05-04 23:53 | 41.46831 | -72.23910 | 20994 ft | 415 kts | 60° |
| 2026-05-04 23:54 | 41.48123 | -72.20466 | 20923 ft | 414 kts | 60° |
| 2026-05-04 23:54 | 41.49400 | -72.17018 | 20731 ft | 415 kts | 60° |
| 2026-05-04 23:54 | 41.50666 | -72.13559 | 20171 ft | 415 kts | 61° |
| 2026-05-04 23:54 | 41.51913 | -72.10132 | 19848 ft | 406 kts | 61° |
| 2026-05-04 23:55 | 41.53147 | -72.06741 | 19696 ft | 408 kts | 61° |
| 2026-05-04 23:55 | 41.54391 | -72.03329 | 19472 ft | 409 kts | 61° |
| 2026-05-04 23:55 | 41.56601 | -71.96409 | 18945 ft | 406 kts | 66° |
| 2026-05-04 23:56 | 41.57623 | -71.92901 | 18717 ft | 406 kts | 66° |
| 2026-05-04 23:56 | 41.58651 | -71.89392 | 18477 ft | 405 kts | 66° |
| 2026-05-04 23:56 | 41.59686 | -71.85907 | 18251 ft | 403 kts | 66° |
| 2026-05-04 23:56 | 41.60724 | -71.82439 | 17990 ft | 402 kts | 66° |
| 2026-05-04 23:57 | 41.61761 | -71.78988 | 17777 ft | 397 kts | 66° |
| 2026-05-04 23:57 | 41.62776 | -71.75608 | 17649 ft | 385 kts | 66° |
| 2026-05-04 23:57 | 41.63754 | -71.72348 | 17501 ft | 371 kts | 66° |
| 2026-05-04 23:57 | 41.64698 | -71.69196 | 17273 ft | 360 kts | 66° |
| 2026-05-04 23:58 | 41.65625 | -71.66106 | 17021 ft | 359 kts | 66° |
| 2026-05-04 23:58 | 41.66558 | -71.62996 | 16770 ft | 360 kts | 66° |
| 2026-05-04 23:58 | 41.67485 | -71.59898 | 16514 ft | 358 kts | 66° |
| 2026-05-04 23:58 | 41.68405 | -71.56813 | 16170 ft | 357 kts | 66° |
| 2026-05-04 23:59 | 41.69306 | -71.53745 | 15812 ft | 352 kts | 67° |
| 2026-05-04 23:59 | 41.70189 | -71.50714 | 15429 ft | 347 kts | 67° |
| 2026-05-04 23:59 | 41.71060 | -71.47722 | 15048 ft | 343 kts | 67° |
| 2026-05-04 23:59 | 41.71919 | -71.44769 | 14662 ft | 338 kts | 67° |
| 2026-05-05 00:00 | 41.72913 | -71.41900 | 14407 ft | 347 kts | 58° |
| 2026-05-05 00:00 | 41.73323 | -71.40953 | 14323 ft | 350 kts | 58° |
| 2026-05-05 00:00 | 41.75325 | -71.36312 | 13925 ft | 342 kts | 58° |
| 2026-05-05 00:00 | 41.76511 | -71.33543 | 13685 ft | 343 kts | 58° |
| 2026-05-05 00:01 | 41.77693 | -71.30776 | 13423 ft | 341 kts | 58° |
| 2026-05-05 00:01 | 41.78864 | -71.28029 | 13147 ft | 338 kts | 58° |
| 2026-05-05 00:01 | 41.80026 | -71.25298 | 12818 ft | 338 kts | 58° |
| 2026-05-05 00:01 | 41.81184 | -71.22572 | 12406 ft | 335 kts | 58° |
| 2026-05-05 00:02 | 41.82328 | -71.19880 | 12113 ft | 327 kts | 58° |
| 2026-05-05 00:02 | 41.83433 | -71.17273 | 11912 ft | 317 kts | 58° |
| 2026-05-05 00:02 | 41.84516 | -71.14720 | 11775 ft | 317 kts | 58° |
| 2026-05-05 00:02 | 41.85609 | -71.12145 | 11610 ft | 318 kts | 58° |
| 2026-05-05 00:03 | 41.86702 | -71.09592 | 11458 ft | 314 kts | 58° |
| 2026-05-05 00:03 | 41.87801 | -71.07055 | 11191 ft | 312 kts | 57° |
| 2026-05-05 00:03 | 41.88888 | -71.04547 | 11031 ft | 312 kts | 57° |
| 2026-05-05 00:03 | 41.89978 | -71.02029 | 10846 ft | 311 kts | 57° |
| 2026-05-05 00:04 | 41.91059 | -70.99524 | 10660 ft | 309 kts | 57° |
| 2026-05-05 00:04 | 41.92132 | -70.97036 | 10467 ft | 308 kts | 57° |
| 2026-05-05 00:04 | 41.93200 | -70.94554 | 10269 ft | 306 kts | 57° |
| 2026-05-05 00:04 | 41.94266 | -70.92076 | 10093 ft | 306 kts | 57° |
| 2026-05-05 00:05 | 41.95326 | -70.89608 | 9906 ft | 305 kts | 57° |
| 2026-05-05 00:05 | 41.96382 | -70.87150 | 9701 ft | 302 kts | 57° |
| 2026-05-05 00:05 | 41.97431 | -70.84706 | 9518 ft | 302 kts | 57° |
| 2026-05-05 00:05 | 41.98467 | -70.82293 | 9338 ft | 302 kts | 57° |
| 2026-05-05 00:06 | 41.99514 | -70.79849 | 9157 ft | 302 kts | 57° |
| 2026-05-05 00:06 | 42.00561 | -70.77408 | 8964 ft | 301 kts | 56° |
| 2026-05-05 00:06 | 42.01782 | -70.75157 | 8836 ft | 296 kts | 44° |
| 2026-05-05 00:06 | 42.03174 | -70.73101 | 8484 ft | 298 kts | 44° |
| 2026-05-05 00:07 | 42.04551 | -70.71057 | 8331 ft | 294 kts | 44° |
| 2026-05-05 00:07 | 42.05932 | -70.68997 | 8212 ft | 298 kts | 44° |
| 2026-05-05 00:07 | 42.07315 | -70.66925 | 8067 ft | 296 kts | 45° |
| 2026-05-05 00:07 | 42.08688 | -70.64866 | 8032 ft | 295 kts | 45° |
| 2026-05-05 00:08 | 42.10087 | -70.62846 | 8018 ft | 295 kts | 37° |
| 2026-05-05 00:08 | 42.11804 | -70.61419 | 7799 ft | 288 kts | 16° |
| 2026-05-05 00:08 | 42.13731 | -70.60774 | 7370 ft | 285 kts | 6° |
| 2026-05-05 00:08 | 42.15680 | -70.60258 | 6966 ft | 284 kts | 6° |
| 2026-05-05 00:09 | 42.17586 | -70.59740 | 6808 ft | 279 kts | 6° |
| 2026-05-05 00:09 | 42.19509 | -70.59213 | 6549 ft | 283 kts | 6° |
| 2026-05-05 00:09 | 42.21413 | -70.58680 | 6344 ft | 277 kts | 7° |
| 2026-05-05 00:09 | 42.23316 | -70.58147 | 6063 ft | 280 kts | 7° |
| 2026-05-05 00:10 | 42.25210 | -70.57614 | 5833 ft | 278 kts | 6° |
| 2026-05-05 00:10 | 42.27110 | -70.57081 | 5541 ft | 278 kts | 6° |
| 2026-05-05 00:10 | 42.28990 | -70.56552 | 5289 ft | 276 kts | 6° |
| 2026-05-05 00:10 | 42.30881 | -70.56045 | 5058 ft | 275 kts | 1° |
| 2026-05-05 00:11 | 42.32707 | -70.56312 | 5007 ft | 261 kts | 333° |
| 2026-05-05 00:11 | 42.34190 | -70.57639 | 5009 ft | 254 kts | 311° |
| 2026-05-05 00:11 | 42.35450 | -70.59305 | 5003 ft | 253 kts | 311° |
| 2026-05-05 00:11 | 42.36708 | -70.60969 | 5003 ft | 252 kts | 311° |
| 2026-05-05 00:12 | 42.37965 | -70.62624 | 4990 ft | 252 kts | 311° |
| 2026-05-05 00:12 | 42.39226 | -70.64280 | 4987 ft | 253 kts | 311° |
| 2026-05-05 00:12 | 42.40486 | -70.65931 | 4985 ft | 252 kts | 311° |
| 2026-05-05 00:12 | 42.41755 | -70.67595 | 4969 ft | 254 kts | 311° |
| 2026-05-05 00:13 | 42.43020 | -70.69256 | 4975 ft | 253 kts | 311° |
| 2026-05-05 00:13 | 42.44285 | -70.70919 | 4970 ft | 254 kts | 311° |
| 2026-05-05 00:13 | 42.45548 | -70.72581 | 4971 ft | 253 kts | 311° |
| 2026-05-05 00:13 | 42.46807 | -70.74236 | 4972 ft | 252 kts | 311° |
| 2026-05-05 00:14 | 42.48062 | -70.75890 | 4971 ft | 252 kts | 311° |
| 2026-05-05 00:14 | 42.49310 | -70.77533 | 4897 ft | 247 kts | 311° |
| 2026-05-05 00:14 | 42.50513 | -70.79115 | 4812 ft | 235 kts | 311° |
| 2026-05-05 00:14 | 42.51691 | -70.80570 | 4682 ft | 227 kts | 320° |
| 2026-05-05 00:15 | 42.53163 | -70.81359 | 4387 ft | 235 kts | 347° |
| 2026-05-05 00:15 | 42.54825 | -70.81082 | 3970 ft | 250 kts | 15° |
| 2026-05-05 00:15 | 42.56462 | -70.80250 | 3590 ft | 252 kts | 16° |
| 2026-05-05 00:15 | 42.58225 | -70.79401 | 3501 ft | 283 kts | 9° |
| 2026-05-05 00:16 | 42.60187 | -70.79308 | 3473 ft | 282 kts | 342° |
| 2026-05-05 00:16 | 42.61897 | -70.80354 | 3402 ft | 259 kts | 315° |
| 2026-05-05 00:16 | 42.62919 | -70.82177 | 3268 ft | 232 kts | 285° |
| 2026-05-05 00:16 | 42.63054 | -70.84206 | 3088 ft | 209 kts | 253° |
| 2026-05-05 00:17 | 42.62410 | -70.85903 | 2954 ft | 201 kts | 236° |
| 2026-05-05 00:17 | 42.61606 | -70.87485 | 2958 ft | 203 kts | 233° |
| 2026-05-05 00:17 | 42.60526 | -70.88687 | 2974 ft | 205 kts | 211° |
| 2026-05-05 00:17 | 42.59213 | -70.89476 | 2974 ft | 208 kts | 204° |
| 2026-05-05 00:18 | 42.57875 | -70.90115 | 2971 ft | 199 kts | 204° |
| 2026-05-05 00:18 | 42.56589 | -70.90748 | 2973 ft | 201 kts | 204° |
| 2026-05-05 00:18 | 42.55272 | -70.91392 | 2962 ft | 201 kts | 204° |
| 2026-05-05 00:18 | 42.53966 | -70.92026 | 2975 ft | 198 kts | 204° |
| 2026-05-05 00:19 | 42.52721 | -70.92632 | 2971 ft | 181 kts | 204° |
| 2026-05-05 00:19 | 42.51595 | -70.93179 | 2924 ft | 165 kts | 205° |
| 2026-05-05 00:19 | 42.50545 | -70.93692 | 2718 ft | 157 kts | 205° |
| 2026-05-05 00:19 | 42.49552 | -70.94175 | 2522 ft | 155 kts | 205° |
| 2026-05-05 00:20 | 42.48533 | -70.94673 | 2314 ft | 152 kts | 204° |
| 2026-05-05 00:20 | 42.47550 | -70.95149 | 2119 ft | 150 kts | 204° |
| 2026-05-05 00:20 | 42.46557 | -70.95627 | 1942 ft | 152 kts | 205° |
| 2026-05-05 00:20 | 42.45591 | -70.96098 | 1738 ft | 144 kts | 205° |
| 2026-05-05 00:21 | 42.44651 | -70.96558 | 1549 ft | 139 kts | 204° |
| 2026-05-05 00:21 | 42.43793 | -70.96969 | 1372 ft | 122 kts | 204° |
| 2026-05-05 00:21 | 42.43038 | -70.97339 | 1222 ft | 117 kts | 204° |
| 2026-05-05 00:21 | 42.42248 | -70.97724 | 1054 ft | 123 kts | 204° |
| 2026-05-05 00:22 | 42.41457 | -70.98108 | 891 ft | 122 kts | 202° |
| 2026-05-05 00:22 | 42.40633 | -70.98506 | 708 ft | 128 kts | 202° |
| 2026-05-05 00:22 | 42.39811 | -70.98906 | 545 ft | 124 kts | 201° |
| 2026-05-05 00:22 | 42.39018 | -70.99282 | 393 ft | 121 kts | 201° |
| 2026-05-05 00:23 | 42.38216 | -70.99670 | 259 ft | 124 kts | 199° |
| 2026-05-05 00:23 | 42.37405 | -71.00069 | 69 ft | 123 kts | 199° |
| 2026-05-05 00:23 | 42.36644 | -71.00433 | 26 ft | 104 kts | 199° |
| 2026-05-05 00:23 | 42.36136 | -71.00680 | 25 ft | 56 kts | 199° |
| 2026-05-05 00:24 | 42.35886 | -71.00953 | 24 ft | 19 kts | 229° |
| 2026-05-05 00:24 | 42.35868 | -71.00982 | 25 ft | 3 kts | 229° |
| 2026-05-05 00:24 | 42.35862 | -71.00992 | 27 ft | 6 kts | 230° |
| 2026-05-05 00:24 | 42.35832 | -71.01095 | 26 ft | 14 kts | 262° |
| 2026-05-05 00:25 | 42.35842 | -71.01238 | 23 ft | 16 kts | 277° |
| 2026-05-05 00:25 | 42.35845 | -71.01274 | 24 ft | 0 kts | 276° |
| 2026-05-05 00:26 | 42.35845 | -71.01277 | 24 ft | 2 kts | 276° |
| 2026-05-05 00:26 | 42.35850 | -71.01317 | 25 ft | 8 kts | 278° |
| 2026-05-05 00:27 | 42.35864 | -71.01426 | 28 ft | 14 kts | 280° |
| 2026-05-05 00:27 | 42.35883 | -71.01583 | 24 ft | 19 kts | 281° |
| 2026-05-05 00:27 | 42.35910 | -71.01766 | 26 ft | 21 kts | 284° |
| 2026-05-05 00:27 | 42.35976 | -71.01953 | 28 ft | 23 kts | 301° |
| 2026-05-05 00:28 | 42.36061 | -71.02144 | 25 ft | 23 kts | 301° |
| 2026-05-05 00:28 | 42.36108 | -71.02251 | 25 ft | 9 kts | 303° |
| 2026-05-05 00:28 | 42.36172 | -71.02299 | 27 ft | 12 kts | 345° |
| 2026-05-05 00:28 | 42.36257 | -71.02257 | 25 ft | 11 kts | 23° |
| 2026-05-05 00:29 | 42.36334 | -71.02267 | 24 ft | 9 kts | 311° |
| 2026-05-05 00:29 | 42.36334 | -71.02344 | 27 ft | 9 kts | 257° |
| 2026-05-05 00:29 | 42.36284 | -71.02362 | 26 ft | 8 kts | 167° |
| 2026-05-05 00:29 | 42.36266 | -71.02389 | 25 ft | 2 kts | 270° |
| 2026-05-05 00:30 | 42.36266 | -71.02411 | 26 ft | 5 kts | 267° |
| 2026-05-05 00:30 | 42.36267 | -71.02432 | 27 ft | 2 kts | 270° |
| 2026-05-05 00:30 | 42.36267 | -71.02433 | 27 ft | 0 kts | 270° |